Time;durP1;ratioP1;P1;durP2;ratioP2;P2;SDS_P1;SDS_P2;PMS_P1;PMS_P2;Temp;Humidity;BMP_temperature;BMP_pressure;BME280_temperature;BME280_humidity;BME280_pressure;Samples;Min_cycle;Max_cycle;Signal;HPM_P1;HPM_P2
2023/06/10 00:01:28;;;;;;;;;;;24.00;42.00;;;;;;1546145;76;1571;-60
2023/06/10 00:03:30;;;;;;;;;;;24.00;41.90;;;;;;1539673;76;793;-59
2023/06/10 00:05:32;;;;;;;;;;;24.00;41.90;;;;;;1550062;76;694;-59
2023/06/10 00:07:37;;;;;;;;;;;24.00;41.90;;;;;;1546426;76;1123;-59
2023/06/10 00:09:39;;;;;;;;;;;24.00;41.90;;;;;;1542898;76;1170;-61
2023/06/10 00:11:41;;;;;;;;;;;24.00;42.00;;;;;;1543337;75;1151;-59
2023/06/10 00:13:43;;;;;;;;;;;24.00;41.90;;;;;;1547995;76;794;-59
2023/06/10 00:15:45;;;;;;;;;;;24.00;42.00;;;;;;1552302;76;1506;-58
2023/06/10 00:17:47;;;;;;;;;;;24.10;42.10;;;;;;1545908;76;1122;-61
2023/06/10 00:19:50;;;;;;;;;;;24.00;42.00;;;;;;1560116;76;1931;-59
2023/06/10 00:21:52;;;;;;;;;;;24.00;42.00;;;;;;1547640;76;707;-59
2023/06/10 00:23:55;;;;;;;;;;;24.10;42.10;;;;;;1558541;76;788;-59
2023/06/10 00:25:59;;;;;;;;;;;24.10;42.20;;;;;;1547374;76;643;-59
2023/06/10 00:28:01;;;;;;;;;;;24.10;42.20;;;;;;1547023;76;1424;-60
2023/06/10 00:30:06;;;;;;;;;;;24.00;42.00;;;;;;1539631;76;1520;-61
2023/06/10 00:32:07;;;;;;;;;;;24.10;42.20;;;;;;1542779;76;1508;-59
2023/06/10 00:34:09;;;;;;;;;;;24.10;42.20;;;;;;1550524;76;1089;-59
2023/06/10 00:36:11;;;;;;;;;;;24.00;42.10;;;;;;1545101;76;901;-59
2023/06/10 00:38:14;;;;;;;;;;;24.10;42.20;;;;;;1552617;76;1192;-59
2023/06/10 00:40:17;;;;;;;;;;;24.10;42.10;;;;;;1542773;76;1942;-59
2023/06/10 00:42:19;;;;;;;;;;;24.00;42.10;;;;;;1553324;76;648;-58
2023/06/10 00:44:21;;;;;;;;;;;24.00;42.10;;;;;;1551144;76;1316;-58
2023/06/10 00:46:22;;;;;;;;;;;24.10;42.30;;;;;;1536924;76;709;-60
2023/06/10 00:48:24;;;;;;;;;;;24.00;42.10;;;;;;1550167;76;1162;-60
2023/06/10 00:50:26;;;;;;;;;;;24.10;42.20;;;;;;1548485;76;729;-60
2023/06/10 00:52:34;;;;;;;;;;;24.00;42.10;;;;;;1539403;76;766;-59
2023/06/10 00:54:32;;;;;;;;;;;24.00;42.10;;;;;;1539690;76;1449;-59
2023/06/10 00:56:34;;;;;;;;;;;24.00;42.10;;;;;;1545303;76;670;-59
2023/06/10 00:58:36;;;;;;;;;;;24.00;42.20;;;;;;1551965;76;1569;-59
2023/06/10 01:00:38;;;;;;;;;;;24.10;42.30;;;;;;1544462;76;1954;-59
2023/06/10 01:02:40;;;;;;;;;;;24.10;42.30;;;;;;1540211;76;728;-58
2023/06/10 01:04:42;;;;;;;;;;;24.00;42.20;;;;;;1554951;76;669;-59
2023/06/10 01:06:49;;;;;;;;;;;24.10;42.30;;;;;;1552280;76;819;-59
2023/06/10 01:08:52;;;;;;;;;;;24.10;42.30;;;;;;1547869;76;1455;-59
2023/06/10 01:10:55;;;;;;;;;;;24.00;42.20;;;;;;1498030;76;1119;-59
2023/06/10 01:13:02;;;;;;;;;;;24.00;42.20;;;;;;1549028;76;1505;-59
2023/06/10 01:15:04;;;;;;;;;;;24.00;42.20;;;;;;1548321;76;878;-59
2023/06/10 01:17:07;;;;;;;;;;;24.10;42.40;;;;;;1544078;76;747;-60
2023/06/10 01:19:09;;;;;;;;;;;24.00;42.20;;;;;;1536506;76;1926;-59
2023/06/10 01:21:16;;;;;;;;;;;24.00;42.20;;;;;;1544038;76;745;-60
2023/06/10 01:23:18;;;;;;;;;;;24.00;42.20;;;;;;1543370;76;1280;-59
2023/06/10 01:25:27;;;;;;;;;;;24.00;42.20;;;;;;1549459;76;939;-59
2023/06/10 01:27:24;;;;;;;;;;;24.00;42.20;;;;;;1543124;76;1672;-59
2023/06/10 01:29:27;;;;;;;;;;;24.00;42.30;;;;;;1545506;76;727;-61
2023/06/10 01:31:33;;;;;;;;;;;24.10;42.40;;;;;;1537532;76;1699;-59
2023/06/10 01:33:36;;;;;;;;;;;24.00;42.20;;;;;;1548790;76;1148;-61
2023/06/10 01:35:39;;;;;;;;;;;24.00;42.20;;;;;;1525962;76;711;-59
2023/06/10 01:37:41;;;;;;;;;;;24.00;42.30;;;;;;1533399;76;1155;-59
2023/06/10 01:39:42;;;;;;;;;;;24.00;42.30;;;;;;1535675;76;1938;-59
2023/06/10 01:41:44;;;;;;;;;;;24.00;42.30;;;;;;1533809;76;789;-61
2023/06/10 01:43:46;;;;;;;;;;;24.10;42.40;;;;;;1532259;76;782;-59
2023/06/10 01:45:48;;;;;;;;;;;24.00;42.30;;;;;;1525169;76;725;-62
2023/06/10 01:47:50;;;;;;;;;;;24.10;42.40;;;;;;1527931;76;1196;-57
2023/06/10 01:49:52;;;;;;;;;;;24.00;42.30;;;;;;1533488;76;705;-56
2023/06/10 01:51:54;;;;;;;;;;;24.00;42.30;;;;;;1537343;76;808;-59
2023/06/10 01:53:56;;;;;;;;;;;24.00;42.30;;;;;;1541210;76;1366;-56
2023/06/10 01:55:58;;;;;;;;;;;24.00;42.30;;;;;;1530843;76;736;-57
2023/06/10 01:58:00;;;;;;;;;;;24.00;42.30;;;;;;1539384;76;1172;-58
2023/06/10 02:00:03;;;;;;;;;;;24.00;42.30;;;;;;1531295;76;1924;-59
2023/06/10 02:02:05;;;;;;;;;;;24.00;42.30;;;;;;1533249;76;686;-57
2023/06/10 02:04:07;;;;;;;;;;;24.00;42.30;;;;;;1543423;76;794;-58
2023/06/10 02:06:09;;;;;;;;;;;24.00;42.30;;;;;;1532251;76;742;-57
2023/06/10 02:08:11;;;;;;;;;;;24.00;42.30;;;;;;1530929;76;1584;-56
2023/06/10 02:10:13;;;;;;;;;;;24.00;42.30;;;;;;1534854;76;766;-57
2023/06/10 02:12:14;;;;;;;;;;;24.00;42.40;;;;;;1534438;76;742;-58
2023/06/10 02:14:16;;;;;;;;;;;24.00;42.30;;;;;;1523772;76;734;-56
2023/06/10 02:16:18;;;;;;;;;;;24.00;42.30;;;;;;1523723;76;621;-58
2023/06/10 02:18:20;;;;;;;;;;;24.00;42.30;;;;;;1529972;76;1134;-57
2023/06/10 02:20:22;;;;;;;;;;;24.00;42.40;;;;;;1533338;76;1920;-57
2023/06/10 02:22:25;;;;;;;;;;;24.00;42.40;;;;;;1549181;76;1448;-58
2023/06/10 02:24:27;;;;;;;;;;;24.00;42.30;;;;;;1538132;76;823;-57
2023/06/10 02:26:29;;;;;;;;;;;24.00;42.30;;;;;;1541788;76;635;-56
2023/06/10 02:28:30;;;;;;;;;;;24.00;42.30;;;;;;1516160;76;1159;-56
2023/06/10 02:30:32;;;;;;;;;;;24.00;42.40;;;;;;1532728;76;905;-57
2023/06/10 02:32:34;;;;;;;;;;;24.00;42.40;;;;;;1534292;76;812;-57
2023/06/10 02:34:36;;;;;;;;;;;24.00;42.40;;;;;;1536264;75;897;-58
2023/06/10 02:36:38;;;;;;;;;;;24.00;42.40;;;;;;1539335;76;1545;-57
2023/06/10 02:38:40;;;;;;;;;;;24.00;42.40;;;;;;1538454;76;1155;-59
2023/06/10 02:40:42;;;;;;;;;;;24.00;42.40;;;;;;1538659;76;2188;-57
2023/06/10 02:42:44;;;;;;;;;;;24.00;42.40;;;;;;1539863;76;694;-58
2023/06/10 02:44:46;;;;;;;;;;;24.00;42.40;;;;;;1548990;76;687;-58
2023/06/10 02:46:48;;;;;;;;;;;24.00;42.30;;;;;;1541970;76;675;-57
2023/06/10 02:48:51;;;;;;;;;;;24.00;42.40;;;;;;1545282;76;1128;-58
2023/06/10 02:50:53;;;;;;;;;;;24.00;42.30;;;;;;1540567;76;1453;-58
2023/06/10 02:52:55;;;;;;;;;;;24.00;42.40;;;;;;1544798;76;677;-57
2023/06/10 02:54:57;;;;;;;;;;;24.00;42.40;;;;;;1537252;76;760;-57
2023/06/10 02:56:59;;;;;;;;;;;24.00;42.40;;;;;;1535784;76;687;-58
2023/06/10 02:59:01;;;;;;;;;;;24.00;42.40;;;;;;1537377;76;1075;-58
2023/06/10 03:01:03;;;;;;;;;;;24.00;42.50;;;;;;1539814;76;1938;-57
2023/06/10 03:03:05;;;;;;;;;;;24.00;42.40;;;;;;1528226;76;740;-59
2023/06/10 03:05:10;;;;;;;;;;;24.00;42.40;;;;;;1527143;76;1330;-57
2023/06/10 03:07:12;;;;;;;;;;;24.00;42.40;;;;;;1534943;76;1154;-56
2023/06/10 03:09:14;;;;;;;;;;;24.00;42.40;;;;;;1538522;76;891;-57
2023/06/10 03:11:16;;;;;;;;;;;24.00;42.40;;;;;;1538126;75;746;-57
2023/06/10 03:13:17;;;;;;;;;;;24.00;42.50;;;;;;1547045;76;750;-59
2023/06/10 03:15:20;;;;;;;;;;;24.00;42.50;;;;;;1546700;76;736;-60
2023/06/10 03:17:22;;;;;;;;;;;24.00;42.50;;;;;;1543860;76;1088;-57
2023/06/10 03:19:24;;;;;;;;;;;24.00;42.40;;;;;;1539510;76;1557;-57
2023/06/10 03:21:26;;;;;;;;;;;24.00;42.40;;;;;;1532963;76;1929;-57
2023/06/10 03:23:29;;;;;;;;;;;24.00;42.40;;;;;;1548672;76;750;-59
2023/06/10 03:25:30;;;;;;;;;;;24.00;42.40;;;;;;1539830;76;767;-58
2023/06/10 03:27:32;;;;;;;;;;;24.00;42.40;;;;;;1532366;76;1134;-58
2023/06/10 03:29:34;;;;;;;;;;;24.00;42.40;;;;;;1538476;76;779;-58
2023/06/10 03:31:37;;;;;;;;;;;24.00;42.40;;;;;;1532559;76;680;-59
2023/06/10 03:33:39;;;;;;;;;;;24.00;42.50;;;;;;1541924;76;1514;-59
2023/06/10 03:35:41;;;;;;;;;;;24.00;42.50;;;;;;1544891;76;1103;-57
2023/06/10 03:37:43;;;;;;;;;;;24.00;42.40;;;;;;1536516;76;1206;-57
2023/06/10 03:39:45;;;;;;;;;;;24.00;42.50;;;;;;1536394;76;772;-57
2023/06/10 03:41:47;;;;;;;;;;;24.00;42.50;;;;;;1545841;76;1931;-57
2023/06/10 03:43:49;;;;;;;;;;;24.00;42.40;;;;;;1537904;76;700;-58
2023/06/10 03:45:51;;;;;;;;;;;24.00;42.40;;;;;;1532359;76;760;-59
2023/06/10 03:47:53;;;;;;;;;;;24.00;42.40;;;;;;1545205;76;1477;-59
2023/06/10 03:49:56;;;;;;;;;;;24.00;42.50;;;;;;1522645;76;710;-59
2023/06/10 03:51:58;;;;;;;;;;;23.90;42.50;;;;;;1529386;76;778;-59
2023/06/10 03:54:00;;;;;;;;;;;24.00;42.60;;;;;;1527057;76;698;-59
2023/06/10 03:56:02;;;;;;;;;;;24.00;42.50;;;;;;1539293;76;666;-59
2023/06/10 03:58:04;;;;;;;;;;;23.90;42.50;;;;;;1547749;76;1106;-59
2023/06/10 04:00:16;;;;;;;;;;;24.00;42.60;;;;;;1536464;76;1926;-60
2023/06/10 04:02:11;;;;;;;;;;;24.00;42.50;;;;;;1532849;76;1493;-59
2023/06/10 04:04:19;;;;;;;;;;;24.00;42.50;;;;;;1541527;76;780;-59
2023/06/10 04:06:18;;;;;;;;;;;24.00;42.50;;;;;;1545627;76;1303;-59
2023/06/10 04:08:20;;;;;;;;;;;24.00;42.50;;;;;;1538273;76;1153;-61
2023/06/10 04:10:22;;;;;;;;;;;23.90;42.60;;;;;;1538084;75;783;-58
2023/06/10 04:12:24;;;;;;;;;;;23.90;42.60;;;;;;1529915;76;869;-59
2023/06/10 04:14:26;;;;;;;;;;;24.00;42.60;;;;;;1540593;76;811;-61
2023/06/10 04:16:28;;;;;;;;;;;24.00;42.60;;;;;;1539080;76;718;-61
2023/06/10 04:18:30;;;;;;;;;;;23.90;42.60;;;;;;1543895;76;1144;-59
2023/06/10 04:20:32;;;;;;;;;;;24.00;42.50;;;;;;1533473;76;1937;-60
2023/06/10 04:22:34;;;;;;;;;;;24.00;42.50;;;;;;1546767;76;727;-60
2023/06/10 04:24:35;;;;;;;;;;;24.00;42.50;;;;;;1535832;76;652;-59
2023/06/10 04:26:37;;;;;;;;;;;24.00;42.50;;;;;;1541293;76;663;-59
2023/06/10 04:28:39;;;;;;;;;;;24.00;42.50;;;;;;1538749;76;1541;-61
2023/06/10 04:30:41;;;;;;;;;;;23.90;42.50;;;;;;1533124;76;758;-61
2023/06/10 04:32:43;;;;;;;;;;;24.00;42.50;;;;;;1533569;76;658;-59
2023/06/10 04:34:45;;;;;;;;;;;23.90;42.50;;;;;;1537636;76;786;-59
2023/06/10 04:36:47;;;;;;;;;;;24.00;42.60;;;;;;1537890;76;1094;-59
2023/06/10 04:38:50;;;;;;;;;;;23.90;42.50;;;;;;1546240;76;1182;-59
2023/06/10 04:40:52;;;;;;;;;;;24.00;42.50;;;;;;1560442;76;1911;-58
2023/06/10 04:42:54;;;;;;;;;;;24.00;42.50;;;;;;1544252;76;1503;-59
2023/06/10 04:44:57;;;;;;;;;;;24.00;42.50;;;;;;1546339;76;679;-59
2023/06/10 04:46:59;;;;;;;;;;;23.90;42.50;;;;;;1544198;76;785;-59
2023/06/10 04:49:01;;;;;;;;;;;24.00;42.50;;;;;;1538768;76;1153;-59
2023/06/10 04:51:03;;;;;;;;;;;24.00;42.50;;;;;;1536764;76;778;-60
2023/06/10 04:53:05;;;;;;;;;;;24.00;42.50;;;;;;1542302;76;796;-59
2023/06/10 04:55:08;;;;;;;;;;;24.00;42.50;;;;;;1544245;76;777;-59
2023/06/10 04:57:11;;;;;;;;;;;23.90;42.50;;;;;;1543967;76;1543;-59
2023/06/10 04:59:14;;;;;;;;;;;24.00;42.50;;;;;;1554056;76;819;-59
2023/06/10 05:01:16;;;;;;;;;;;23.90;42.50;;;;;;1545813;76;1917;-61
2023/06/10 05:03:18;;;;;;;;;;;24.00;42.60;;;;;;1547574;76;696;-59
2023/06/10 05:05:20;;;;;;;;;;;23.90;42.60;;;;;;1553198;76;804;-59
2023/06/10 05:07:21;;;;;;;;;;;24.00;42.50;;;;;;1555082;76;1105;-60
2023/06/10 05:09:23;;;;;;;;;;;23.90;42.60;;;;;;1545294;76;723;-59
2023/06/10 05:11:25;;;;;;;;;;;23.90;42.60;;;;;;1547607;75;1519;-59
2023/06/10 05:13:27;;;;;;;;;;;24.00;42.50;;;;;;1543840;76;752;-59
2023/06/10 05:15:30;;;;;;;;;;;24.00;42.50;;;;;;1549578;76;692;-59
2023/06/10 05:17:32;;;;;;;;;;;23.90;42.50;;;;;;1543608;76;1161;-58
2023/06/10 05:19:35;;;;;;;;;;;23.90;42.50;;;;;;1552815;76;659;-58
2023/06/10 05:21:37;;;;;;;;;;;24.00;42.50;;;;;;1545386;76;1916;-58
2023/06/10 05:23:39;;;;;;;;;;;23.90;42.50;;;;;;1547383;76;783;-59
2023/06/10 05:25:42;;;;;;;;;;;24.00;42.60;;;;;;1541469;76;1531;-58
2023/06/10 05:27:44;;;;;;;;;;;24.00;42.60;;;;;;1544653;76;1124;-58
2023/06/10 05:29:46;;;;;;;;;;;24.00;42.50;;;;;;1544021;76;877;-58
2023/06/10 05:31:48;;;;;;;;;;;24.00;42.50;;;;;;1550326;76;1033;-58
2023/06/10 05:33:50;;;;;;;;;;;24.00;42.50;;;;;;1547544;76;846;-58
2023/06/10 05:35:51;;;;;;;;;;;24.00;42.50;;;;;;1546584;76;1104;-59
2023/06/10 05:37:53;;;;;;;;;;;24.00;42.50;;;;;;1540138;76;1209;-57
2023/06/10 05:39:55;;;;;;;;;;;24.00;42.50;;;;;;1543632;76;1551;-58
2023/06/10 05:41:59;;;;;;;;;;;24.10;42.60;;;;;;1549554;76;1951;-58
2023/06/10 05:44:01;;;;;;;;;;;24.00;42.40;;;;;;1555513;76;690;-58
2023/06/10 05:46:03;;;;;;;;;;;24.00;42.40;;;;;;1549374;76;687;-58
2023/06/10 05:48:04;;;;;;;;;;;24.00;42.50;;;;;;1556493;76;1122;-58
2023/06/10 05:50:10;;;;;;;;;;;24.00;42.50;;;;;;1552698;76;771;-58
2023/06/10 05:52:11;;;;;;;;;;;24.00;42.50;;;;;;1555900;76;665;-58
2023/06/10 05:54:13;;;;;;;;;;;24.00;42.50;;;;;;1547590;76;1573;-58
2023/06/10 05:56:15;;;;;;;;;;;24.00;42.50;;;;;;1553737;76;726;-58
2023/06/10 05:58:17;;;;;;;;;;;24.10;42.60;;;;;;1555658;76;1199;-58
2023/06/10 06:00:19;;;;;;;;;;;24.10;42.60;;;;;;1537801;76;672;-57
2023/06/10 06:02:21;;;;;;;;;;;24.00;42.50;;;;;;1543862;76;1947;-58
2023/06/10 06:04:23;;;;;;;;;;;24.10;42.60;;;;;;1546402;76;706;-58
2023/06/10 06:06:25;;;;;;;;;;;24.10;42.60;;;;;;1547384;76;815;-58
2023/06/10 06:08:27;;;;;;;;;;;24.10;42.60;;;;;;1551162;76;1307;-58
2023/06/10 06:10:28;;;;;;;;;;;24.00;42.40;;;;;;1543393;75;763;-58
2023/06/10 06:12:30;;;;;;;;;;;24.10;42.60;;;;;;1547467;76;848;-59
2023/06/10 06:14:32;;;;;;;;;;;24.10;42.60;;;;;;1551608;76;687;-58
2023/06/10 06:16:34;;;;;;;;;;;24.10;42.60;;;;;;1541183;76;799;-58
2023/06/10 06:18:36;;;;;;;;;;;24.10;42.50;;;;;;1553103;76;1142;-58
2023/06/10 06:20:38;;;;;;;;;;;24.10;42.60;;;;;;1551149;76;792;-58
2023/06/10 06:22:40;;;;;;;;;;;24.10;42.60;;;;;;1549565;76;1954;-58
2023/06/10 06:24:42;;;;;;;;;;;24.10;42.60;;;;;;1552015;76;945;-58
2023/06/10 06:26:44;;;;;;;;;;;24.20;42.60;;;;;;1547440;76;775;-60
2023/06/10 06:28:45;;;;;;;;;;;24.10;42.60;;;;;;1544826;76;1144;-59
2023/06/10 06:30:47;;;;;;;;;;;24.10;42.60;;;;;;1547547;76;683;-58
2023/06/10 06:32:49;;;;;;;;;;;24.10;42.60;;;;;;1548019;76;743;-57
2023/06/10 06:34:54;;;;;;;;;;;24.10;42.60;;;;;;1550507;76;734;-58
2023/06/10 06:36:55;;;;;;;;;;;24.10;42.60;;;;;;1545060;76;1689;-60
2023/06/10 06:38:58;;;;;;;;;;;24.20;42.60;;;;;;1535895;76;1189;-58
2023/06/10 06:41:05;;;;;;;;;;;24.20;42.60;;;;;;1530009;76;1897;-58
2023/06/10 06:43:06;;;;;;;;;;;24.20;42.60;;;;;;1547531;76;1714;-58
2023/06/10 06:45:08;;;;;;;;;;;24.20;42.60;;;;;;1543181;76;663;-58
2023/06/10 06:47:10;;;;;;;;;;;24.20;42.60;;;;;;1539174;76;1129;-58
2023/06/10 06:49:12;;;;;;;;;;;24.20;42.60;;;;;;1527486;76;1500;-58
2023/06/10 06:51:14;;;;;;;;;;;24.20;42.60;;;;;;1543145;76;652;-58
2023/06/10 06:53:16;;;;;;;;;;;24.20;42.60;;;;;;1546423;76;902;-58
2023/06/10 06:55:18;;;;;;;;;;;24.20;42.60;;;;;;1536813;76;694;-59
2023/06/10 06:57:20;;;;;;;;;;;24.20;42.60;;;;;;1540852;76;1171;-59
2023/06/10 06:59:22;;;;;;;;;;;24.20;42.70;;;;;;1534830;76;707;-58
2023/06/10 07:01:24;;;;;;;;;;;24.20;42.70;;;;;;1542597;76;1919;-58
2023/06/10 07:03:26;;;;;;;;;;;24.20;42.70;;;;;;1546589;76;1347;-58
2023/06/10 07:05:28;;;;;;;;;;;24.20;42.70;;;;;;1538218;76;671;-57
2023/06/10 07:07:30;;;;;;;;;;;24.20;42.80;;;;;;1542505;76;1126;-59
2023/06/10 07:09:31;;;;;;;;;;;24.20;42.80;;;;;;1529676;76;940;-58
2023/06/10 07:11:33;;;;;;;;;;;24.20;42.80;;;;;;1546377;75;762;-60
2023/06/10 07:13:35;;;;;;;;;;;24.20;42.80;;;;;;1535654;76;785;-60
2023/06/10 07:15:37;;;;;;;;;;;24.20;42.70;;;;;;1537640;76;668;-58
2023/06/10 07:17:39;;;;;;;;;;;24.20;42.80;;;;;;1543916;76;1276;-58
2023/06/10 07:19:41;;;;;;;;;;;24.20;42.80;;;;;;1538904;76;742;-58
2023/06/10 07:21:43;;;;;;;;;;;24.20;42.80;;;;;;1537011;76;1949;-57
2023/06/10 07:23:44;;;;;;;;;;;24.20;42.80;;;;;;1535847;76;735;-58
2023/06/10 07:25:46;;;;;;;;;;;24.20;42.80;;;;;;1552229;76;784;-59
2023/06/10 07:27:48;;;;;;;;;;;24.30;42.90;;;;;;1537768;76;1122;-59
2023/06/10 07:29:51;;;;;;;;;;;24.20;42.80;;;;;;1541721;76;762;-57
2023/06/10 07:31:53;;;;;;;;;;;24.30;42.90;;;;;;1542334;76;1466;-58
2023/06/10 07:33:55;;;;;;;;;;;24.30;42.90;;;;;;1533405;76;818;-58
2023/06/10 07:35:57;;;;;;;;;;;24.30;42.90;;;;;;1541244;76;794;-58
2023/06/10 07:37:58;;;;;;;;;;;24.30;42.80;;;;;;1535254;76;1109;-58
2023/06/10 07:40:00;;;;;;;;;;;24.30;42.80;;;;;;1531948;76;733;-58
2023/06/10 07:42:02;;;;;;;;;;;24.30;42.80;;;;;;1535912;76;1944;-58
2023/06/10 07:44:04;;;;;;;;;;;24.30;42.80;;;;;;1541312;76;728;-58
2023/06/10 07:46:06;;;;;;;;;;;24.30;42.80;;;;;;1540011;76;1453;-58
2023/06/10 07:48:08;;;;;;;;;;;24.30;42.80;;;;;;1535877;76;1110;-59
2023/06/10 07:50:10;;;;;;;;;;;24.30;42.80;;;;;;1537954;76;733;-59
2023/06/10 07:52:12;;;;;;;;;;;24.30;42.90;;;;;;1544976;76;774;-58
2023/06/10 07:54:14;;;;;;;;;;;24.30;42.90;;;;;;1542601;76;705;-59
2023/06/10 07:56:16;;;;;;;;;;;24.30;42.90;;;;;;1540109;76;803;-58
2023/06/10 07:58:18;;;;;;;;;;;24.30;43.10;;;;;;1539504;76;1172;-58
2023/06/10 08:00:20;;;;;;;;;;;24.20;43.30;;;;;;1534184;76;1508;-58
2023/06/10 08:02:22;;;;;;;;;;;24.30;43.50;;;;;;1539760;76;1910;-57
2023/06/10 08:04:24;;;;;;;;;;;24.40;43.20;;;;;;1541861;76;807;-60
2023/06/10 08:06:26;;;;;;;;;;;24.40;43.10;;;;;;1547563;76;780;-59
2023/06/10 08:08:27;;;;;;;;;;;24.40;43.20;;;;;;1545314;76;1094;-59
2023/06/10 08:10:29;;;;;;;;;;;24.30;43.20;;;;;;1543251;75;697;-60
2023/06/10 08:12:32;;;;;;;;;;;24.40;43.20;;;;;;1538370;76;800;-59
2023/06/10 08:14:34;;;;;;;;;;;24.40;43.20;;;;;;1535981;76;1525;-59
2023/06/10 08:16:36;;;;;;;;;;;24.40;43.20;;;;;;1546602;76;791;-59
2023/06/10 08:18:38;;;;;;;;;;;24.40;43.20;;;;;;1542851;76;1122;-58
2023/06/10 08:20:39;;;;;;;;;;;24.40;43.10;;;;;;1547739;76;796;-58
2023/06/10 08:22:41;;;;;;;;;;;24.40;43.20;;;;;;1545614;76;1955;-58
2023/06/10 08:24:43;;;;;;;;;;;24.30;43.20;;;;;;1533914;76;796;-60
2023/06/10 08:26:45;;;;;;;;;;;24.40;43.20;;;;;;1531135;76;762;-59
2023/06/10 08:28:47;;;;;;;;;;;24.40;43.20;;;;;;1539962;76;1622;-59
2023/06/10 08:30:49;;;;;;;;;;;24.40;43.30;;;;;;1533306;76;738;-58
2023/06/10 08:32:51;;;;;;;;;;;24.30;43.30;;;;;;1548172;76;803;-59
2023/06/10 08:34:53;;;;;;;;;;;24.30;43.30;;;;;;1542287;76;899;-60
2023/06/10 08:36:55;;;;;;;;;;;24.40;43.10;;;;;;1529203;76;748;-58
2023/06/10 08:38:57;;;;;;;;;;;24.50;43.10;;;;;;1544966;75;1126;-59
2023/06/10 08:41:00;;;;;;;;;;;24.40;42.90;;;;;;1545986;75;785;-59
2023/06/10 08:43:10;;;;;;;;;;;24.40;42.90;;;;;;1564174;75;1940;-60
2023/06/10 08:45:13;;;;;;;;;;;24.40;42.90;;;;;;1561675;75;753;-59
2023/06/10 08:47:15;;;;;;;;;;;24.40;42.90;;;;;;1546535;75;1405;-60
2023/06/10 08:49:20;;;;;;;;;;;24.50;43.00;;;;;;1548821;75;784;-57
2023/06/10 08:51:22;;;;;;;;;;;24.40;42.90;;;;;;1551866;75;1479;-58
2023/06/10 08:53:23;;;;;;;;;;;24.40;43.00;;;;;;1545018;75;792;-60
2023/06/10 08:55:27;;;;;;;;;;;24.40;43.00;;;;;;1554682;75;704;-60
2023/06/10 08:57:30;;;;;;;;;;;24.40;43.00;;;;;;1561102;75;1815;-59
2023/06/10 08:59:32;;;;;;;;;;;24.50;43.10;;;;;;1556565;75;729;-60
2023/06/10 09:01:34;;;;;;;;;;;24.40;42.90;;;;;;1549165;75;761;-60
2023/06/10 09:03:39;;;;;;;;;;;24.50;43.00;;;;;;1557877;75;1949;-58
2023/06/10 09:05:41;;;;;;;;;;;24.40;42.90;;;;;;1560666;75;682;-58
2023/06/10 09:07:43;;;;;;;;;;;24.50;43.10;;;;;;1556689;75;1161;-58
2023/06/10 09:09:45;;;;;;;;;;;24.40;43.00;;;;;;1562413;75;797;-57
2023/06/10 09:11:47;;;;;;;;;;;24.40;43.10;;;;;;1558104;75;1594;-59
2023/06/10 09:13:49;;;;;;;;;;;24.40;43.10;;;;;;1560216;75;700;-60
2023/06/10 09:15:51;;;;;;;;;;;24.40;43.10;;;;;;1556852;75;842;-59
2023/06/10 09:17:52;;;;;;;;;;;24.30;43.20;;;;;;1562361;75;1117;-58
2023/06/10 09:19:55;;;;;;;;;;;24.40;43.10;;;;;;1561484;75;665;-58
2023/06/10 09:21:57;;;;;;;;;;;24.30;43.10;;;;;;1556990;75;1913;-58
2023/06/10 09:23:59;;;;;;;;;;;24.40;43.20;;;;;;1549932;75;1516;-59
2023/06/10 09:26:01;;;;;;;;;;;24.40;43.20;;;;;;1557196;75;693;-58
2023/06/10 09:28:03;;;;;;;;;;;24.40;43.20;;;;;;1545890;75;1147;-61
2023/06/10 09:30:05;;;;;;;;;;;24.40;43.20;;;;;;1554887;76;761;-60
2023/06/10 09:32:07;;;;;;;;;;;24.40;43.20;;;;;;1561910;75;837;-58
2023/06/10 09:34:10;;;;;;;;;;;24.40;43.10;;;;;;1542629;76;813;-58
2023/06/10 09:36:12;;;;;;;;;;;24.40;43.10;;;;;;1551296;75;720;-57
2023/06/10 09:38:15;;;;;;;;;;;24.40;43.20;;;;;;1549108;75;1568;-58
2023/06/10 09:40:17;;;;;;;;;;;24.40;43.20;;;;;;1542341;76;678;-58
2023/06/10 09:42:19;;;;;;;;;;;24.40;43.20;;;;;;1545538;76;1948;-58
2023/06/10 09:44:21;;;;;;;;;;;24.40;43.10;;;;;;1545189;76;794;-58
2023/06/10 09:46:23;;;;;;;;;;;24.40;43.20;;;;;;1542376;76;661;-57
2023/06/10 09:48:25;;;;;;;;;;;24.40;43.10;;;;;;1541462;76;1172;-58
2023/06/10 09:50:26;;;;;;;;;;;24.40;43.10;;;;;;1537872;76;701;-57
2023/06/10 09:52:29;;;;;;;;;;;24.40;43.10;;;;;;1553820;76;1299;-57
2023/06/10 09:54:32;;;;;;;;;;;24.40;43.10;;;;;;1539637;76;779;-57
2023/06/10 09:56:35;;;;;;;;;;;24.40;43.10;;;;;;1547971;76;780;-58
2023/06/10 09:58:43;;;;;;;;;;;24.40;43.10;;;;;;1548167;76;1117;-58
2023/06/10 10:00:43;;;;;;;;;;;24.40;43.20;;;;;;1550136;76;1656;-58
2023/06/10 10:02:48;;;;;;;;;;;24.30;43.10;;;;;;1544116;76;1920;-58
2023/06/10 10:04:50;;;;;;;;;;;24.30;43.20;;;;;;1543180;76;1123;-58
2023/06/10 10:06:52;;;;;;;;;;;24.40;43.10;;;;;;1547272;76;1323;-57
2023/06/10 10:08:54;;;;;;;;;;;24.40;43.10;;;;;;1549066;76;1158;-58
2023/06/10 10:10:57;;;;;;;;;;;24.40;43.20;;;;;;1544461;75;804;-58
2023/06/10 10:13:00;;;;;;;;;;;24.40;43.30;;;;;;1546638;76;830;-59
2023/06/10 10:15:02;;;;;;;;;;;24.40;43.30;;;;;;1545575;76;715;-58
2023/06/10 10:17:08;;;;;;;;;;;24.40;43.30;;;;;;1553923;76;811;-58
2023/06/10 10:19:23;;;;;;;;;;;24.40;43.20;;;;;;1546422;76;813;-58
2023/06/10 10:21:27;;;;;;;;;;;24.40;43.30;;;;;;1553546;76;1567;-59
2023/06/10 10:23:36;;;;;;;;;;;24.40;43.20;;;;;;1540976;76;1940;-58
2023/06/10 10:25:41;;;;;;;;;;;24.40;43.20;;;;;;1540976;76;1814;-59
2023/06/10 10:27:51;;;;;;;;;;;24.40;43.30;;;;;;1547593;76;1189;-57
2023/06/10 10:29:53;;;;;;;;;;;24.40;43.30;;;;;;1551056;76;750;-58
2023/06/10 10:31:55;;;;;;;;;;;24.40;43.30;;;;;;1535477;76;722;-59
2023/06/10 10:33:58;;;;;;;;;;;24.40;43.30;;;;;;1553790;76;720;-57
2023/06/10 10:36:00;;;;;;;;;;;24.40;43.30;;;;;;1545975;76;1838;-58
2023/06/10 10:38:02;;;;;;;;;;;24.40;43.30;;;;;;1547548;76;1143;-58
2023/06/10 10:40:04;;;;;;;;;;;24.40;43.30;;;;;;1536738;76;1040;-58
2023/06/10 10:42:09;;;;;;;;;;;24.40;43.30;;;;;;1534962;76;853;-58
2023/06/10 10:44:11;;;;;;;;;;;24.50;43.40;;;;;;1541210;76;1931;-58
2023/06/10 10:46:14;;;;;;;;;;;24.40;43.30;;;;;;1553827;76;736;-58
2023/06/10 10:48:16;;;;;;;;;;;24.40;43.30;;;;;;1548376;76;1801;-58
2023/06/10 10:50:18;;;;;;;;;;;24.40;43.30;;;;;;1538281;76;777;-59
2023/06/10 10:52:20;;;;;;;;;;;24.50;43.40;;;;;;1542217;76;750;-59
2023/06/10 10:54:24;;;;;;;;;;;24.40;43.30;;;;;;1557602;76;809;-57
2023/06/10 10:56:30;;;;;;;;;;;24.50;43.40;;;;;;1546758;76;1921;-58
2023/06/10 10:58:29;;;;;;;;;;;24.40;43.20;;;;;;1518817;77;2010;-60
2023/06/10 11:00:31;;;;;;;;;;;24.50;43.40;;;;;;1543545;76;687;-58
2023/06/10 11:02:44;;;;;;;;;;;24.50;43.40;;;;;;1542580;76;1933;-59
2023/06/10 11:04:47;;;;;;;;;;;24.50;43.40;;;;;;1536480;76;659;-59
2023/06/10 11:06:55;;;;;;;;;;;24.40;43.30;;;;;;1541879;76;1841;-58
2023/06/10 11:08:58;;;;;;;;;;;24.40;43.30;;;;;;1545978;76;1125;-58
2023/06/10 11:11:00;;;;;;;;;;;24.40;43.30;;;;;;1554063;75;820;-58
2023/06/10 11:13:08;;;;;;;;;;;24.50;43.40;;;;;;1543434;76;754;-59
2023/06/10 11:15:10;;;;;;;;;;;24.50;43.40;;;;;;1545240;76;720;-58
2023/06/10 11:17:20;;;;;;;;;;;24.50;43.30;;;;;;1539946;76;1578;-58
2023/06/10 11:19:35;;;;;;;;;;;24.50;43.40;;;;;;1542833;76;1025;-60
2023/06/10 11:21:47;;;;;;;;;;;24.40;43.30;;;;;;1538274;76;790;-58
2023/06/10 11:23:50;;;;;;;;;;;24.50;43.30;;;;;;1527949;76;1946;-58
2023/06/10 11:25:52;;;;;;;;;;;24.40;43.30;;;;;;1501257;77;710;-58
2023/06/10 11:27:53;;;;;;;;;;;24.50;43.40;;;;;;1548862;76;1110;-60
2023/06/10 11:30:03;;;;;;;;;;;24.50;43.40;;;;;;1545900;76;733;-60
2023/06/10 11:32:05;;;;;;;;;;;24.50;43.40;;;;;;1544874;76;1570;-60
2023/06/10 11:34:07;;;;;;;;;;;24.50;43.40;;;;;;1561755;76;784;-59
2023/06/10 11:36:09;;;;;;;;;;;24.50;43.40;;;;;;1539914;76;745;-58
2023/06/10 11:38:11;;;;;;;;;;;24.40;43.40;;;;;;1548738;76;1109;-57
2023/06/10 11:40:13;;;;;;;;;;;24.40;43.30;;;;;;1538236;76;984;-58
2023/06/10 11:42:16;;;;;;;;;;;24.40;43.30;;;;;;1533021;76;806;-58
2023/06/10 11:44:18;;;;;;;;;;;24.40;43.30;;;;;;1536545;76;1928;-58
2023/06/10 11:46:20;;;;;;;;;;;24.40;43.30;;;;;;1536154;76;1544;-59
2023/06/10 11:48:22;;;;;;;;;;;24.50;43.40;;;;;;1537054;76;1159;-59
2023/06/10 11:50:31;;;;;;;;;;;24.40;43.40;;;;;;1538501;76;610;-58
2023/06/10 11:52:37;;;;;;;;;;;24.40;43.30;;;;;;1533863;76;2231;-60
2023/06/10 11:54:37;;;;;;;;;;;24.40;43.30;;;;;;1545071;76;1524;-58
2023/06/10 11:56:39;;;;;;;;;;;24.40;43.30;;;;;;1533287;76;661;-60
2023/06/10 11:58:44;;;;;;;;;;;24.40;43.40;;;;;;1533818;76;1588;-60
2023/06/10 12:00:54;;;;;;;;;;;24.40;43.30;;;;;;1534266;76;748;-60
2023/06/10 12:02:57;;;;;;;;;;;24.40;43.30;;;;;;1550282;76;1931;-58
2023/06/10 12:05:01;;;;;;;;;;;24.40;43.30;;;;;;1534924;76;723;-58
2023/06/10 12:07:02;;;;;;;;;;;24.40;43.20;;;;;;1526116;76;1834;-58
2023/06/10 12:09:04;;;;;;;;;;;24.40;43.20;;;;;;1545374;76;1140;-58